sensor_id;sensor_type;location;lat;lon;timestamp;temperature;humidity
69009;SHT31;56065;52.472;13.380;2023-10-19T00:00:34;8.50;79.01
69009;SHT31;56065;52.472;13.380;2023-10-19T00:03:01;8.46;79.01
69009;SHT31;56065;52.472;13.380;2023-10-19T00:05:31;8.42;78.96
69009;SHT31;56065;52.472;13.380;2023-10-19T00:08:04;8.43;79.10
69009;SHT31;56065;52.472;13.380;2023-10-19T00:10:43;8.43;79.18
69009;SHT31;56065;52.472;13.380;2023-10-19T00:13:10;8.42;79.14
69009;SHT31;56065;52.472;13.380;2023-10-19T00:15:38;8.42;79.21
69009;SHT31;56065;52.472;13.380;2023-10-19T00:18:18;8.41;79.00
69009;SHT31;56065;52.472;13.380;2023-10-19T00:20:45;8.39;78.99
69009;SHT31;56065;52.472;13.380;2023-10-19T00:23:11;8.42;78.95
69009;SHT31;56065;52.472;13.380;2023-10-19T00:25:39;8.33;79.06
69009;SHT31;56065;52.472;13.380;2023-10-19T00:28:07;8.33;79.15
69009;SHT31;56065;52.472;13.380;2023-10-19T00:30:32;8.36;79.08
69009;SHT31;56065;52.472;13.380;2023-10-19T00:33:03;8.29;79.14
69009;SHT31;56065;52.472;13.380;2023-10-19T00:35:33;8.33;79.20
69009;SHT31;56065;52.472;13.380;2023-10-19T00:38:00;8.35;79.03
69009;SHT31;56065;52.472;13.380;2023-10-19T00:40:51;8.35;79.13
69009;SHT31;56065;52.472;13.380;2023-10-19T00:43:31;8.31;79.33
69009;SHT31;56065;52.472;13.380;2023-10-19T00:46:05;8.33;79.09
69009;SHT31;56065;52.472;13.380;2023-10-19T00:49:02;8.32;79.14
69009;SHT31;56065;52.472;13.380;2023-10-19T00:51:34;8.29;79.03
69009;SHT31;56065;52.472;13.380;2023-10-19T00:54:16;8.29;79.19
69009;SHT31;56065;52.472;13.380;2023-10-19T00:56:47;8.29;79.19
69009;SHT31;56065;52.472;13.380;2023-10-19T00:59:16;8.32;79.11
69009;SHT31;56065;52.472;13.380;2023-10-19T01:01:55;8.26;79.32
69009;SHT31;56065;52.472;13.380;2023-10-19T01:04:28;8.29;79.28
69009;SHT31;56065;52.472;13.380;2023-10-19T01:06:59;8.24;79.19
69009;SHT31;56065;52.472;13.380;2023-10-19T01:09:55;8.25;79.27
69009;SHT31;56065;52.472;13.380;2023-10-19T01:12:23;8.25;79.31
69009;SHT31;56065;52.472;13.380;2023-10-19T01:15:21;8.22;79.46
69009;SHT31;56065;52.472;13.380;2023-10-19T01:17:56;8.25;79.37
69009;SHT31;56065;52.472;13.380;2023-10-19T01:20:26;8.22;79.50
69009;SHT31;56065;52.472;13.380;2023-10-19T01:23:02;8.24;79.38
69009;SHT31;56065;52.472;13.380;2023-10-19T01:25:44;8.25;79.33
69009;SHT31;56065;52.472;13.380;2023-10-19T01:28:16;8.24;79.37
69009;SHT31;56065;52.472;13.380;2023-10-19T01:30:43;8.21;79.51
69009;SHT31;56065;52.472;13.380;2023-10-19T01:33:10;8.26;79.44
69009;SHT31;56065;52.472;13.380;2023-10-19T01:35:39;8.26;79.42
69009;SHT31;56065;52.472;13.380;2023-10-19T01:38:37;8.28;79.38
69009;SHT31;56065;52.472;13.380;2023-10-19T01:41:04;8.20;79.47
69009;SHT31;56065;52.472;13.380;2023-10-19T01:43:42;8.26;79.57
69009;SHT31;56065;52.472;13.380;2023-10-19T01:46:09;8.25;79.53
69009;SHT31;56065;52.472;13.380;2023-10-19T01:48:42;8.28;79.23
69009;SHT31;56065;52.472;13.380;2023-10-19T01:51:08;8.29;79.32
69009;SHT31;56065;52.472;13.380;2023-10-19T01:53:39;8.26;79.38
69009;SHT31;56065;52.472;13.380;2023-10-19T01:56:05;8.20;79.43
69009;SHT31;56065;52.472;13.380;2023-10-19T01:58:39;8.21;79.37
69009;SHT31;56065;52.472;13.380;2023-10-19T02:01:08;8.24;79.39
69009;SHT31;56065;52.472;13.380;2023-10-19T02:03:40;8.24;79.35
69009;SHT31;56065;52.472;13.380;2023-10-19T02:06:09;8.22;79.38
69009;SHT31;56065;52.472;13.380;2023-10-19T02:09:03;8.21;79.42
69009;SHT31;56065;52.472;13.380;2023-10-19T02:11:35;8.20;79.79
69009;SHT31;56065;52.472;13.380;2023-10-19T02:14:07;8.26;79.38
69009;SHT31;56065;52.472;13.380;2023-10-19T02:16:42;8.25;79.64
69009;SHT31;56065;52.472;13.380;2023-10-19T02:19:09;8.29;79.46
69009;SHT31;56065;52.472;13.380;2023-10-19T02:21:35;8.21;79.39
69009;SHT31;56065;52.472;13.380;2023-10-19T02:24:08;8.25;79.39
69009;SHT31;56065;52.472;13.380;2023-10-19T02:26:34;8.29;79.47
69009;SHT31;56065;52.472;13.380;2023-10-19T02:29:01;8.33;79.55
69009;SHT31;56065;52.472;13.380;2023-10-19T02:31:32;8.36;79.48
69009;SHT31;56065;52.472;13.380;2023-10-19T02:33:57;8.36;79.40
69009;SHT31;56065;52.472;13.380;2023-10-19T02:36:29;8.39;79.33
69009;SHT31;56065;52.472;13.380;2023-10-19T02:39:00;8.36;79.26
69009;SHT31;56065;52.472;13.380;2023-10-19T02:41:36;8.43;79.15
69009;SHT31;56065;52.472;13.380;2023-10-19T02:44:02;8.39;79.34
69009;SHT31;56065;52.472;13.380;2023-10-19T02:46:46;8.43;79.40
69009;SHT31;56065;52.472;13.380;2023-10-19T02:49:14;8.41;79.25
69009;SHT31;56065;52.472;13.380;2023-10-19T02:51:44;8.41;79.40
69009;SHT31;56065;52.472;13.380;2023-10-19T02:54:10;8.38;79.43
69009;SHT31;56065;52.472;13.380;2023-10-19T02:56:43;8.48;79.15
69009;SHT31;56065;52.472;13.380;2023-10-19T02:59:09;8.48;79.20
69009;SHT31;56065;52.472;13.380;2023-10-19T03:01:34;8.53;78.93
69009;SHT31;56065;52.472;13.380;2023-10-19T03:04:01;8.49;79.14
69009;SHT31;56065;52.472;13.380;2023-10-19T03:06:30;8.49;78.97
69009;SHT31;56065;52.472;13.380;2023-10-19T03:08:59;8.46;79.12
69009;SHT31;56065;52.472;13.380;2023-10-19T03:11:45;8.46;79.14
69009;SHT31;56065;52.472;13.380;2023-10-19T03:14:11;8.50;78.94
69009;SHT31;56065;52.472;13.380;2023-10-19T03:16:37;8.49;79.08
69009;SHT31;56065;52.472;13.380;2023-10-19T03:19:06;8.53;79.14
69009;SHT31;56065;52.472;13.380;2023-10-19T03:21:32;8.43;79.05
69009;SHT31;56065;52.472;13.380;2023-10-19T03:24:06;8.54;78.90
69009;SHT31;56065;52.472;13.380;2023-10-19T03:26:32;8.43;79.07
69009;SHT31;56065;52.472;13.380;2023-10-19T03:29:02;8.50;78.77
69009;SHT31;56065;52.472;13.380;2023-10-19T03:31:33;8.56;78.63
69009;SHT31;56065;52.472;13.380;2023-10-19T03:34:02;8.54;78.63
69009;SHT31;56065;52.472;13.380;2023-10-19T03:36:31;8.57;78.62
69009;SHT31;56065;52.472;13.380;2023-10-19T03:38:58;8.48;78.93
69009;SHT31;56065;52.472;13.380;2023-10-19T03:41:30;8.50;78.63
69009;SHT31;56065;52.472;13.380;2023-10-19T03:44:01;8.52;78.59
69009;SHT31;56065;52.472;13.380;2023-10-19T03:46:26;8.53;78.79
69009;SHT31;56065;52.472;13.380;2023-10-19T03:48:59;8.50;78.75
69009;SHT31;56065;52.472;13.380;2023-10-19T03:51:29;8.49;79.01
69009;SHT31;56065;52.472;13.380;2023-10-19T03:54:08;8.43;78.88
69009;SHT31;56065;52.472;13.380;2023-10-19T03:56:44;8.48;78.95
69009;SHT31;56065;52.472;13.380;2023-10-19T03:59:09;8.48;78.89
69009;SHT31;56065;52.472;13.380;2023-10-19T04:01:35;8.45;78.92
69009;SHT31;56065;52.472;13.380;2023-10-19T04:04:00;8.48;78.82
69009;SHT31;56065;52.472;13.380;2023-10-19T04:06:26;8.45;78.89
69009;SHT31;56065;52.472;13.380;2023-10-19T04:08:52;8.45;79.10
69009;SHT31;56065;52.472;13.380;2023-10-19T04:11:18;8.46;78.99
69009;SHT31;56065;52.472;13.380;2023-10-19T04:13:58;8.41;78.98
69009;SHT31;56065;52.472;13.380;2023-10-19T04:16:24;8.45;78.97
69009;SHT31;56065;52.472;13.380;2023-10-19T04:18:49;8.43;79.18
69009;SHT31;56065;52.472;13.380;2023-10-19T04:21:15;8.52;79.16
69009;SHT31;56065;52.472;13.380;2023-10-19T04:23:40;8.48;79.00
69009;SHT31;56065;52.472;13.380;2023-10-19T04:26:06;8.45;79.09
69009;SHT31;56065;52.472;13.380;2023-10-19T04:28:38;8.46;79.03
69009;SHT31;56065;52.472;13.380;2023-10-19T04:31:10;8.39;79.23
69009;SHT31;56065;52.472;13.380;2023-10-19T04:33:39;8.50;79.06
69009;SHT31;56065;52.472;13.380;2023-10-19T04:36:04;8.49;78.87
69009;SHT31;56065;52.472;13.380;2023-10-19T04:38:33;8.50;78.89
69009;SHT31;56065;52.472;13.380;2023-10-19T04:41:10;8.49;78.95
69009;SHT31;56065;52.472;13.380;2023-10-19T04:43:39;8.53;78.97
69009;SHT31;56065;52.472;13.380;2023-10-19T04:46:07;8.43;79.10
69009;SHT31;56065;52.472;13.380;2023-10-19T04:48:35;8.48;79.02
69009;SHT31;56065;52.472;13.380;2023-10-19T04:51:02;8.43;79.13
69009;SHT31;56065;52.472;13.380;2023-10-19T04:53:30;8.42;79.29
69009;SHT31;56065;52.472;13.380;2023-10-19T04:55:55;8.38;79.49
69009;SHT31;56065;52.472;13.380;2023-10-19T04:58:21;8.49;79.34
69009;SHT31;56065;52.472;13.380;2023-10-19T05:00:46;8.48;79.14
69009;SHT31;56065;52.472;13.380;2023-10-19T05:03:12;8.52;79.15
69009;SHT31;56065;52.472;13.380;2023-10-19T05:05:43;8.46;79.37
69009;SHT31;56065;52.472;13.380;2023-10-19T05:08:08;8.46;79.27
69009;SHT31;56065;52.472;13.380;2023-10-19T05:10:34;8.48;79.39
69009;SHT31;56065;52.472;13.380;2023-10-19T05:12:59;8.38;79.61
69009;SHT31;56065;52.472;13.380;2023-10-19T05:15:24;8.45;79.51
69009;SHT31;56065;52.472;13.380;2023-10-19T05:17:50;8.36;79.54
69009;SHT31;56065;52.472;13.380;2023-10-19T05:20:15;8.32;79.78
69009;SHT31;56065;52.472;13.380;2023-10-19T05:22:41;8.38;79.70
69009;SHT31;56065;52.472;13.380;2023-10-19T05:25:06;8.42;79.48
69009;SHT31;56065;52.472;13.380;2023-10-19T05:27:33;8.39;79.98
69009;SHT31;56065;52.472;13.380;2023-10-19T05:29:59;8.33;79.82
69009;SHT31;56065;52.472;13.380;2023-10-19T05:32:24;8.48;79.96
69009;SHT31;56065;52.472;13.380;2023-10-19T05:34:50;8.50;79.61
69009;SHT31;56065;52.472;13.380;2023-10-19T05:37:16;8.53;79.41
69009;SHT31;56065;52.472;13.380;2023-10-19T05:39:43;8.48;79.55
69009;SHT31;56065;52.472;13.380;2023-10-19T05:42:09;8.46;79.75
69009;SHT31;56065;52.472;13.380;2023-10-19T05:44:34;8.42;79.71
69009;SHT31;56065;52.472;13.380;2023-10-19T05:47:00;8.46;79.84
69009;SHT31;56065;52.472;13.380;2023-10-19T05:49:25;8.52;80.06
69009;SHT31;56065;52.472;13.380;2023-10-19T05:51:51;8.41;80.40
69009;SHT31;56065;52.472;13.380;2023-10-19T05:54:16;8.42;80.91
69009;SHT31;56065;52.472;13.380;2023-10-19T05:56:42;8.45;80.98
69009;SHT31;56065;52.472;13.380;2023-10-19T05:59:08;8.48;81.10
69009;SHT31;56065;52.472;13.380;2023-10-19T06:01:35;8.46;81.14
69009;SHT31;56065;52.472;13.380;2023-10-19T06:04:00;8.46;81.23
69009;SHT31;56065;52.472;13.380;2023-10-19T06:06:26;8.35;81.50
69009;SHT31;56065;52.472;13.380;2023-10-19T06:08:51;8.33;81.57
69009;SHT31;56065;52.472;13.380;2023-10-19T06:11:19;8.32;81.73
69009;SHT31;56065;52.472;13.380;2023-10-19T06:13:44;8.25;81.97
69009;SHT31;56065;52.472;13.380;2023-10-19T06:16:09;8.15;82.15
69009;SHT31;56065;52.472;13.380;2023-10-19T06:18:35;8.11;82.47
69009;SHT31;56065;52.472;13.380;2023-10-19T06:21:00;8.01;82.55
69009;SHT31;56065;52.472;13.380;2023-10-19T06:23:25;7.99;82.90
69009;SHT31;56065;52.472;13.380;2023-10-19T06:25:51;7.92;83.21
69009;SHT31;56065;52.472;13.380;2023-10-19T06:28:19;7.97;83.38
69009;SHT31;56065;52.472;13.380;2023-10-19T06:30:44;7.90;83.26
69009;SHT31;56065;52.472;13.380;2023-10-19T06:33:13;7.80;83.78
69009;SHT31;56065;52.472;13.380;2023-10-19T06:35:38;7.82;83.79
69009;SHT31;56065;52.472;13.380;2023-10-19T06:38:03;7.85;83.97
69009;SHT31;56065;52.472;13.380;2023-10-19T06:40:29;7.87;83.67
69009;SHT31;56065;52.472;13.380;2023-10-19T06:42:56;7.87;83.88
69009;SHT31;56065;52.472;13.380;2023-10-19T06:45:22;7.92;83.78
69009;SHT31;56065;52.472;13.380;2023-10-19T06:47:49;7.85;84.06
69009;SHT31;56065;52.472;13.380;2023-10-19T06:50:22;7.99;83.78
69009;SHT31;56065;52.472;13.380;2023-10-19T06:52:47;8.05;83.73
69009;SHT31;56065;52.472;13.380;2023-10-19T06:55:13;8.09;83.97
69009;SHT31;56065;52.472;13.380;2023-10-19T06:57:43;8.20;83.68
69009;SHT31;56065;52.472;13.380;2023-10-19T07:00:13;8.22;83.59
69009;SHT31;56065;52.472;13.380;2023-10-19T07:02:45;8.22;83.77
69009;SHT31;56065;52.472;13.380;2023-10-19T07:05:11;8.26;83.15
69009;SHT31;56065;52.472;13.380;2023-10-19T07:07:40;8.24;83.20
69009;SHT31;56065;52.472;13.380;2023-10-19T07:10:07;8.25;83.64
69009;SHT31;56065;52.472;13.380;2023-10-19T07:12:34;8.29;83.28
69009;SHT31;56065;52.472;13.380;2023-10-19T07:14:59;8.45;83.05
69009;SHT31;56065;52.472;13.380;2023-10-19T07:17:26;8.46;83.07
69009;SHT31;56065;52.472;13.380;2023-10-19T07:19:52;8.42;83.10
69009;SHT31;56065;52.472;13.380;2023-10-19T07:22:18;8.48;82.89
69009;SHT31;56065;52.472;13.380;2023-10-19T07:24:47;8.43;83.13
69009;SHT31;56065;52.472;13.380;2023-10-19T07:27:13;8.60;82.97
69009;SHT31;56065;52.472;13.380;2023-10-19T07:29:44;8.62;82.76
69009;SHT31;56065;52.472;13.380;2023-10-19T07:32:09;8.62;82.62
69009;SHT31;56065;52.472;13.380;2023-10-19T07:34:38;8.54;83.07
69009;SHT31;56065;52.472;13.380;2023-10-19T07:37:03;8.56;82.33
69009;SHT31;56065;52.472;13.380;2023-10-19T07:39:29;8.67;82.49
69009;SHT31;56065;52.472;13.380;2023-10-19T07:41:55;8.72;82.59
69009;SHT31;56065;52.472;13.380;2023-10-19T07:44:22;8.73;82.32
69009;SHT31;56065;52.472;13.380;2023-10-19T07:46:47;8.77;82.64
69009;SHT31;56065;52.472;13.380;2023-10-19T07:49:12;8.77;82.65
69009;SHT31;56065;52.472;13.380;2023-10-19T07:51:46;8.80;82.56
69009;SHT31;56065;52.472;13.380;2023-10-19T07:54:12;8.80;82.65
69009;SHT31;56065;52.472;13.380;2023-10-19T07:56:38;8.74;82.65
69009;SHT31;56065;52.472;13.380;2023-10-19T07:59:04;8.80;82.81
69009;SHT31;56065;52.472;13.380;2023-10-19T08:01:29;8.72;82.65
69009;SHT31;56065;52.472;13.380;2023-10-19T08:03:55;8.74;82.68
69009;SHT31;56065;52.472;13.380;2023-10-19T08:06:21;8.74;82.96
69009;SHT31;56065;52.472;13.380;2023-10-19T08:08:46;8.74;82.85
69009;SHT31;56065;52.472;13.380;2023-10-19T08:11:12;8.77;82.67
69009;SHT31;56065;52.472;13.380;2023-10-19T08:13:37;8.83;82.71
69009;SHT31;56065;52.472;13.380;2023-10-19T08:16:04;8.87;82.94
69009;SHT31;56065;52.472;13.380;2023-10-19T08:18:32;8.96;83.19
69009;SHT31;56065;52.472;13.380;2023-10-19T08:21:00;9.00;82.29
69009;SHT31;56065;52.472;13.380;2023-10-19T08:23:26;9.04;82.53
69009;SHT31;56065;52.472;13.380;2023-10-19T08:25:53;9.15;83.40
69009;SHT31;56065;52.472;13.380;2023-10-19T08:28:18;9.18;82.09
69009;SHT31;56065;52.472;13.380;2023-10-19T08:30:44;9.15;82.93
69009;SHT31;56065;52.472;13.380;2023-10-19T08:33:24;9.21;82.22
69009;SHT31;56065;52.472;13.380;2023-10-19T08:35:52;9.45;81.77
69009;SHT31;56065;52.472;13.380;2023-10-19T08:38:19;9.46;81.28
69009;SHT31;56065;52.472;13.380;2023-10-19T08:40:44;9.45;81.05
69009;SHT31;56065;52.472;13.380;2023-10-19T08:43:11;9.41;81.56
69009;SHT31;56065;52.472;13.380;2023-10-19T08:45:38;9.35;81.69
69009;SHT31;56065;52.472;13.380;2023-10-19T08:48:04;9.39;81.82
69009;SHT31;56065;52.472;13.380;2023-10-19T08:50:32;9.34;81.34
69009;SHT31;56065;52.472;13.380;2023-10-19T08:53:01;9.36;81.47
69009;SHT31;56065;52.472;13.380;2023-10-19T08:55:28;9.32;81.45
69009;SHT31;56065;52.472;13.380;2023-10-19T08:57:53;9.24;81.50
69009;SHT31;56065;52.472;13.380;2023-10-19T09:00:19;9.14;81.81
69009;SHT31;56065;52.472;13.380;2023-10-19T09:02:48;9.20;81.75
69009;SHT31;56065;52.472;13.380;2023-10-19T09:05:14;9.24;81.97
69009;SHT31;56065;52.472;13.380;2023-10-19T09:07:53;9.32;81.97
69009;SHT31;56065;52.472;13.380;2023-10-19T09:10:23;9.34;81.82
69009;SHT31;56065;52.472;13.380;2023-10-19T09:13:05;9.39;82.14
69009;SHT31;56065;52.472;13.380;2023-10-19T09:15:38;9.42;81.62
69009;SHT31;56065;52.472;13.380;2023-10-19T09:18:18;9.39;81.92
69009;SHT31;56065;52.472;13.380;2023-10-19T09:20:48;9.38;81.98
69009;SHT31;56065;52.472;13.380;2023-10-19T09:23:33;9.51;81.82
69009;SHT31;56065;52.472;13.380;2023-10-19T09:26:00;9.41;82.48
69009;SHT31;56065;52.472;13.380;2023-10-19T09:28:29;9.44;82.24
69009;SHT31;56065;52.472;13.380;2023-10-19T09:30:55;9.49;82.30
69009;SHT31;56065;52.472;13.380;2023-10-19T09:33:21;9.56;82.53
69009;SHT31;56065;52.472;13.380;2023-10-19T09:35:48;9.53;82.47
69009;SHT31;56065;52.472;13.380;2023-10-19T09:38:17;9.61;82.15
69009;SHT31;56065;52.472;13.380;2023-10-19T09:40:49;9.59;82.36
69009;SHT31;56065;52.472;13.380;2023-10-19T09:43:16;9.53;82.42
69009;SHT31;56065;52.472;13.380;2023-10-19T09:45:47;9.53;82.92
69009;SHT31;56065;52.472;13.380;2023-10-19T09:48:17;9.71;82.73
69009;SHT31;56065;52.472;13.380;2023-10-19T09:50:45;9.69;83.04
69009;SHT31;56065;52.472;13.380;2023-10-19T09:53:13;9.75;82.83
69009;SHT31;56065;52.472;13.380;2023-10-19T09:55:40;9.72;82.86
69009;SHT31;56065;52.472;13.380;2023-10-19T09:58:06;9.71;82.73
69009;SHT31;56065;52.472;13.380;2023-10-19T10:00:34;9.69;82.83
69009;SHT31;56065;52.472;13.380;2023-10-19T10:03:00;9.62;82.99
69009;SHT31;56065;52.472;13.380;2023-10-19T10:10:46;9.56;83.86
69009;SHT31;56065;52.472;13.380;2023-10-19T10:15:53;9.68;83.60
69009;SHT31;56065;52.472;13.380;2023-10-19T10:18:20;9.75;83.60
69009;SHT31;56065;52.472;13.380;2023-10-19T10:20:46;9.68;84.03
69009;SHT31;56065;52.472;13.380;2023-10-19T10:23:17;9.49;84.62
69009;SHT31;56065;52.472;13.380;2023-10-19T10:25:45;9.35;85.56
69009;SHT31;56065;52.472;13.380;2023-10-19T10:28:14;9.27;86.07
69009;SHT31;56065;52.472;13.380;2023-10-19T10:36:06;9.01;88.41
69009;SHT31;56065;52.472;13.380;2023-10-19T10:38:34;8.93;88.52
69009;SHT31;56065;52.472;13.380;2023-10-19T10:41:03;8.93;89.15
69009;SHT31;56065;52.472;13.380;2023-10-19T10:43:29;8.87;89.68
69009;SHT31;56065;52.472;13.380;2023-10-19T10:46:07;8.91;89.19
69009;SHT31;56065;52.472;13.380;2023-10-19T10:48:41;8.88;89.36
69009;SHT31;56065;52.472;13.380;2023-10-19T10:51:18;8.96;89.56
69009;SHT31;56065;52.472;13.380;2023-10-19T10:53:46;9.01;89.65
69009;SHT31;56065;52.472;13.380;2023-10-19T10:56:12;8.99;89.77
69009;SHT31;56065;52.472;13.380;2023-10-19T10:58:37;9.01;89.83
69009;SHT31;56065;52.472;13.380;2023-10-19T11:01:02;9.07;89.93
69009;SHT31;56065;52.472;13.380;2023-10-19T11:03:28;9.05;89.88
69009;SHT31;56065;52.472;13.380;2023-10-19T11:06:02;9.10;90.17
69009;SHT31;56065;52.472;13.380;2023-10-19T11:08:27;9.04;90.26
69009;SHT31;56065;52.472;13.380;2023-10-19T11:10:53;9.07;90.32
69009;SHT31;56065;52.472;13.380;2023-10-19T11:13:25;9.07;90.53
69009;SHT31;56065;52.472;13.380;2023-10-19T11:15:51;9.11;90.31
69009;SHT31;56065;52.472;13.380;2023-10-19T11:20:56;9.11;90.43
69009;SHT31;56065;52.472;13.380;2023-10-19T11:23:49;9.11;90.52
69009;SHT31;56065;52.472;13.380;2023-10-19T11:26:20;9.13;90.85
69009;SHT31;56065;52.472;13.380;2023-10-19T11:28:46;9.11;90.46
69009;SHT31;56065;52.472;13.380;2023-10-19T11:31:20;9.11;90.11
69009;SHT31;56065;52.472;13.380;2023-10-19T11:33:51;9.20;89.78
69009;SHT31;56065;52.472;13.380;2023-10-19T11:36:18;9.22;89.74
69009;SHT31;56065;52.472;13.380;2023-10-19T11:38:46;9.24;89.46
69009;SHT31;56065;52.472;13.380;2023-10-19T11:41:13;9.21;89.40
69009;SHT31;56065;52.472;13.380;2023-10-19T11:43:41;9.28;89.09
69009;SHT31;56065;52.472;13.380;2023-10-19T11:46:08;9.34;89.32
69009;SHT31;56065;52.472;13.380;2023-10-19T11:48:34;9.35;89.12
69009;SHT31;56065;52.472;13.380;2023-10-19T11:51:01;9.25;89.91
69009;SHT31;56065;52.472;13.380;2023-10-19T11:53:33;9.32;89.60
69009;SHT31;56065;52.472;13.380;2023-10-19T11:56:04;9.31;89.74
69009;SHT31;56065;52.472;13.380;2023-10-19T11:58:31;9.38;89.84
69009;SHT31;56065;52.472;13.380;2023-10-19T12:01:08;9.44;89.40
69009;SHT31;56065;52.472;13.380;2023-10-19T12:03:34;9.53;89.48
69009;SHT31;56065;52.472;13.380;2023-10-19T12:06:04;9.45;89.09
69009;SHT31;56065;52.472;13.380;2023-10-19T12:08:32;9.44;89.12
69009;SHT31;56065;52.472;13.380;2023-10-19T12:10:59;9.44;89.69
69009;SHT31;56065;52.472;13.380;2023-10-19T12:13:26;9.38;89.30
69009;SHT31;56065;52.472;13.380;2023-10-19T12:15:53;9.36;89.34
69009;SHT31;56065;52.472;13.380;2023-10-19T12:18:20;9.39;89.23
69009;SHT31;56065;52.472;13.380;2023-10-19T12:20:46;9.38;89.82
69009;SHT31;56065;52.472;13.380;2023-10-19T12:23:13;9.45;89.43
69009;SHT31;56065;52.472;13.380;2023-10-19T12:25:38;9.41;90.10
69009;SHT31;56065;52.472;13.380;2023-10-19T12:28:04;9.39;89.70
69009;SHT31;56065;52.472;13.380;2023-10-19T12:30:30;9.48;90.03
69009;SHT31;56065;52.472;13.380;2023-10-19T12:33:04;9.52;89.77
69009;SHT31;56065;52.472;13.380;2023-10-19T12:35:43;9.53;89.91
69009;SHT31;56065;52.472;13.380;2023-10-19T12:38:16;9.59;89.65
69009;SHT31;56065;52.472;13.380;2023-10-19T12:40:43;9.52;89.57
69009;SHT31;56065;52.472;13.380;2023-10-19T12:43:09;9.49;89.71
69009;SHT31;56065;52.472;13.380;2023-10-19T12:45:36;9.48;90.11
69009;SHT31;56065;52.472;13.380;2023-10-19T12:48:05;9.51;90.48
69009;SHT31;56065;52.472;13.380;2023-10-19T12:50:31;9.53;90.00
69009;SHT31;56065;52.472;13.380;2023-10-19T12:52:57;9.55;90.43
69009;SHT31;56065;52.472;13.380;2023-10-19T12:55:22;9.53;90.01
69009;SHT31;56065;52.472;13.380;2023-10-19T12:57:52;9.62;90.04
69009;SHT31;56065;52.472;13.380;2023-10-19T13:00:17;9.61;90.31
69009;SHT31;56065;52.472;13.380;2023-10-19T13:02:49;9.58;90.86
69009;SHT31;56065;52.472;13.380;2023-10-19T13:05:15;9.59;90.24
69009;SHT31;56065;52.472;13.380;2023-10-19T13:07:46;9.59;91.05
69009;SHT31;56065;52.472;13.380;2023-10-19T13:10:12;9.63;90.93
69009;SHT31;56065;52.472;13.380;2023-10-19T13:12:37;9.59;90.77
69009;SHT31;56065;52.472;13.380;2023-10-19T13:15:04;9.62;90.89
69009;SHT31;56065;52.472;13.380;2023-10-19T13:17:36;9.71;90.32
69009;SHT31;56065;52.472;13.380;2023-10-19T13:20:02;9.75;89.90
69009;SHT31;56065;52.472;13.380;2023-10-19T13:22:41;9.63;89.95
69009;SHT31;56065;52.472;13.380;2023-10-19T13:25:06;9.58;90.38
69009;SHT31;56065;52.472;13.380;2023-10-19T13:27:34;9.52;90.01
69009;SHT31;56065;52.472;13.380;2023-10-19T13:30:00;9.46;89.80
69009;SHT31;56065;52.472;13.380;2023-10-19T13:32:28;9.38;90.07
69009;SHT31;56065;52.472;13.380;2023-10-19T13:34:54;9.39;90.80
69009;SHT31;56065;52.472;13.380;2023-10-19T13:37:20;9.34;90.61
69009;SHT31;56065;52.472;13.380;2023-10-19T13:39:46;9.38;90.51
69009;SHT31;56065;52.472;13.380;2023-10-19T13:42:11;9.45;90.82
69009;SHT31;56065;52.472;13.380;2023-10-19T13:44:37;9.48;90.68
69009;SHT31;56065;52.472;13.380;2023-10-19T13:47:02;9.58;90.87
69009;SHT31;56065;52.472;13.380;2023-10-19T13:49:32;9.62;90.19
69009;SHT31;56065;52.472;13.380;2023-10-19T13:51:57;9.58;89.88
69009;SHT31;56065;52.472;13.380;2023-10-19T13:54:23;9.56;89.72
69009;SHT31;56065;52.472;13.380;2023-10-19T13:56:48;9.48;89.87
69009;SHT31;56065;52.472;13.380;2023-10-19T13:59:15;9.46;90.65
69009;SHT31;56065;52.472;13.380;2023-10-19T14:01:41;9.42;90.56
69009;SHT31;56065;52.472;13.380;2023-10-19T14:04:06;9.44;90.33
69009;SHT31;56065;52.472;13.380;2023-10-19T14:06:31;9.51;89.96
69009;SHT31;56065;52.472;13.380;2023-10-19T14:08:57;9.45;90.07
69009;SHT31;56065;52.472;13.380;2023-10-19T14:11:22;9.32;90.76
69009;SHT31;56065;52.472;13.380;2023-10-19T14:13:48;9.34;90.35
69009;SHT31;56065;52.472;13.380;2023-10-19T14:16:15;9.28;90.15
69009;SHT31;56065;52.472;13.380;2023-10-19T14:18:41;9.25;90.46
69009;SHT31;56065;52.472;13.380;2023-10-19T14:21:16;9.22;90.63
69009;SHT31;56065;52.472;13.380;2023-10-19T14:23:42;9.21;91.25
69009;SHT31;56065;52.472;13.380;2023-10-19T14:26:09;9.20;90.80
69009;SHT31;56065;52.472;13.380;2023-10-19T14:28:35;9.27;90.64
69009;SHT31;56065;52.472;13.380;2023-10-19T14:31:02;9.24;90.64
69009;SHT31;56065;52.472;13.380;2023-10-19T14:33:29;9.34;90.84
69009;SHT31;56065;52.472;13.380;2023-10-19T14:35:54;9.21;90.99
69009;SHT31;56065;52.472;13.380;2023-10-19T14:38:20;9.32;90.49
69009;SHT31;56065;52.472;13.380;2023-10-19T14:40:45;9.34;90.42
69009;SHT31;56065;52.472;13.380;2023-10-19T14:43:13;9.28;90.99
69009;SHT31;56065;52.472;13.380;2023-10-19T14:45:40;9.31;90.66
69009;SHT31;56065;52.472;13.380;2023-10-19T14:48:06;9.35;90.32
69009;SHT31;56065;52.472;13.380;2023-10-19T14:50:34;9.38;90.39
69009;SHT31;56065;52.472;13.380;2023-10-19T14:53:00;9.28;91.01
69009;SHT31;56065;52.472;13.380;2023-10-19T14:55:25;9.36;90.47
69009;SHT31;56065;52.472;13.380;2023-10-19T14:57:53;9.30;90.80
69009;SHT31;56065;52.472;13.380;2023-10-19T15:00:20;9.42;90.79
69009;SHT31;56065;52.472;13.380;2023-10-19T15:02:55;9.39;90.88
69009;SHT31;56065;52.472;13.380;2023-10-19T15:05:22;9.44;90.42
69009;SHT31;56065;52.472;13.380;2023-10-19T15:07:52;9.39;90.58
69009;SHT31;56065;52.472;13.380;2023-10-19T15:10:23;9.28;90.84
69009;SHT31;56065;52.472;13.380;2023-10-19T15:12:48;9.18;91.01
69009;SHT31;56065;52.472;13.380;2023-10-19T15:15:14;9.17;91.50
69009;SHT31;56065;52.472;13.380;2023-10-19T15:17:44;9.22;91.67
69009;SHT31;56065;52.472;13.380;2023-10-19T15:20:11;9.34;91.72
69009;SHT31;56065;52.472;13.380;2023-10-19T15:22:38;9.30;90.92
69009;SHT31;56065;52.472;13.380;2023-10-19T15:25:04;9.39;91.10
69009;SHT31;56065;52.472;13.380;2023-10-19T15:27:33;9.32;91.58
69009;SHT31;56065;52.472;13.380;2023-10-19T15:29:58;9.39;91.25
69009;SHT31;56065;52.472;13.380;2023-10-19T15:32:24;9.41;91.41
69009;SHT31;56065;52.472;13.380;2023-10-19T15:34:55;9.48;91.27
69009;SHT31;56065;52.472;13.380;2023-10-19T15:37:21;9.44;90.74
69009;SHT31;56065;52.472;13.380;2023-10-19T15:39:48;9.51;90.42
69009;SHT31;56065;52.472;13.380;2023-10-19T15:42:14;9.48;91.06
69009;SHT31;56065;52.472;13.380;2023-10-19T15:44:39;9.48;90.58
69009;SHT31;56065;52.472;13.380;2023-10-19T15:47:05;9.44;90.50
69009;SHT31;56065;52.472;13.380;2023-10-19T15:49:55;9.42;91.35
69009;SHT31;56065;52.472;13.380;2023-10-19T15:52:25;9.44;91.47
69009;SHT31;56065;52.472;13.380;2023-10-19T15:54:51;9.46;91.14